Time;durP1;ratioP1;P1;durP2;ratioP2;P2;SDS_P1;SDS_P2;PMS_P1;PMS_P2;Temp;Humidity;BMP_temperature;BMP_pressure;BME280_temperature;BME280_humidity;BME280_pressure;Samples;Min_cycle;Max_cycle;Signal;HPM_P1;HPM_P2
2023/12/04 00:00:01;;;;;;;19.45;11.30;;;;;;;-1.68;100.00;101160.72;5094290;28;20516;-42
2023/12/04 00:02:29;;;;;;;19.92;10.70;;;;;;;-1.82;100.00;101147.59;5096502;28;20056;-42
2023/12/04 00:04:57;;;;;;;20.85;10.80;;;;;;;-1.78;100.00;101151.97;5097463;28;20074;-42
2023/12/04 00:07:26;;;;;;;20.02;10.70;;;;;;;-1.78;100.00;101146.75;5092401;28;20040;-41
2023/12/04 00:09:54;;;;;;;20.60;10.85;;;;;;;-1.84;100.00;101159.78;5093283;28;20589;-42
2023/12/04 00:12:23;;;;;;;21.45;11.57;;;;;;;-1.61;100.00;101154.66;5092984;28;20052;-42
2023/12/04 00:14:52;;;;;;;22.02;11.18;;;;;;;-1.46;100.00;101143.34;5092371;28;20131;-41
2023/12/04 00:17:22;;;;;;;20.40;10.43;;;;;;;-1.58;100.00;101146.81;5092294;28;20055;-42
2023/12/04 00:19:50;;;;;;;20.60;10.40;;;;;;;-1.54;100.00;101148.59;5092219;28;20131;-45
2023/12/04 00:22:18;;;;;;;20.40;10.57;;;;;;;-1.55;100.00;101151.19;5092687;28;20056;-41
2023/12/04 00:24:49;;;;;;;21.65;11.48;;;;;;;-1.59;100.00;101155.53;5091972;28;20064;-42
2023/12/04 00:27:18;;;;;;;22.25;11.52;;;;;;;-1.58;100.00;101151.19;5092162;28;20139;-42
2023/12/04 00:29:47;;;;;;;21.58;10.95;;;;;;;-1.48;100.00;101151.22;5091823;28;20048;-42
2023/12/04 00:32:16;;;;;;;22.33;11.55;;;;;;;-1.58;100.00;101148.56;5092070;28;20051;-45
2023/12/04 00:34:45;;;;;;;19.92;10.85;;;;;;;-1.45;100.00;101152.94;5092552;28;20044;-42
2023/12/04 00:37:14;;;;;;;19.77;10.55;;;;;;;-1.35;100.00;101149.53;5092160;28;20084;-42
2023/12/04 00:39:42;;;;;;;20.08;11.00;;;;;;;-1.36;100.00;101152.09;5092385;28;20138;-43
2023/12/04 00:42:11;;;;;;;22.77;11.25;;;;;;;-1.50;100.00;101146.84;5092594;28;20047;-42
2023/12/04 00:44:39;;;;;;;22.13;11.43;;;;;;;-1.41;100.00;101144.25;5092249;28;20044;-42
2023/12/04 00:47:08;;;;;;;19.83;11.32;;;;;;;-1.29;100.00;101152.13;5092385;28;20599;-42
2023/12/04 00:49:37;;;;;;;20.17;10.93;;;;;;;-1.21;100.00;101139.94;5092153;28;20047;-43
2023/12/04 00:52:07;;;;;;;19.55;11.30;;;;;;;-1.22;100.00;101153.91;5092172;28;20056;-42
2023/12/04 00:54:35;;;;;;;21.33;11.60;;;;;;;-1.16;100.00;101160.88;5092592;28;20067;-42
2023/12/04 00:57:04;;;;;;;21.88;10.95;;;;;;;-1.16;100.00;101156.56;5095066;28;20132;-42
2023/12/04 00:59:32;;;;;;;21.63;11.70;;;;;;;-1.15;100.00;101162.66;5097466;28;20052;-43
2023/12/04 01:02:01;;;;;;;21.35;11.30;;;;;;;-1.16;100.00;101151.31;5096788;28;20388;-44
2023/12/04 01:04:29;;;;;;;20.73;10.95;;;;;;;-1.11;100.00;101153.06;5092035;28;20136;-42
2023/12/04 01:06:58;;;;;;;23.48;11.20;;;;;;;-1.12;100.00;101152.19;5091636;28;20481;-43
2023/12/04 01:09:28;;;;;;;20.77;11.38;;;;;;;-1.13;100.00;101144.31;5092363;28;20090;-42
2023/12/04 01:11:57;;;;;;;19.00;10.63;;;;;;;-1.23;100.00;101144.31;5091902;28;20094;-48
2023/12/04 01:14:25;;;;;;;18.67;10.48;;;;;;;-1.19;100.00;101145.19;5091554;28;20048;-43
2023/12/04 01:16:56;;;;;;;20.88;11.13;;;;;;;-1.19;100.00;101155.66;5091600;28;20094;-42
2023/12/04 01:19:27;;;;;;;22.38;11.57;;;;;;;-1.13;100.00;101150.44;5091268;28;20481;-43
2023/12/04 01:21:56;;;;;;;20.45;11.23;;;;;;;-1.18;100.00;101142.56;5077404;28;20098;-42
2023/12/04 01:24:24;;;;;;;19.55;11.25;;;;;;;-1.19;100.00;101140.81;5095292;28;20052;-40
2023/12/04 01:26:54;;;;;;;20.35;10.85;;;;;;;-1.20;100.00;101149.53;5094208;28;20094;-42
2023/12/04 01:29:23;;;;;;;17.92;10.52;;;;;;;-1.17;100.00;101146.91;5095659;28;20127;-43
2023/12/04 01:31:52;;;;;;;19.85;10.57;;;;;;;-1.08;100.00;101153.03;5094897;28;20051;-43
2023/12/04 01:34:20;;;;;;;20.95;11.23;;;;;;;-1.12;100.00;101151.31;5095134;28;20101;-42
2023/12/04 01:36:49;;;;;;;17.98;10.18;;;;;;;-1.11;100.00;101150.44;5095344;28;20453;-41
2023/12/04 01:39:17;;;;;;;20.65;10.75;;;;;;;-1.17;100.00;101151.28;5096163;28;20086;-43
2023/12/04 01:41:45;;;;;;;22.67;11.93;;;;;;;-1.21;100.00;101150.41;5096106;28;20189;-42
2023/12/04 01:44:15;;;;;;;19.55;11.32;;;;;;;-1.31;100.00;101160.88;5100033;28;20072;-43
2023/12/04 01:46:43;;;;;;;20.23;11.45;;;;;;;-1.36;100.00;101157.34;5102041;28;20040;-42
2023/12/04 01:49:12;;;;;;;21.73;11.98;;;;;;;-1.32;100.00;101160.00;5102420;28;20051;-41
2023/12/04 01:51:41;;;;;;;21.48;11.75;;;;;;;-1.25;100.00;101163.50;5093935;28;20048;-42
2023/12/04 01:54:09;;;;;;;23.20;11.57;;;;;;;-1.27;100.00;101157.38;5095120;28;20147;-41
2023/12/04 01:56:38;;;;;;;19.95;10.73;;;;;;;-1.22;100.00;101160.88;5094815;28;20072;-41
2023/12/04 01:59:06;;;;;;;20.48;11.10;;;;;;;-1.25;100.00;101172.22;5094419;28;20044;-43
2023/12/04 02:01:37;;;;;;;19.67;10.88;;;;;;;-1.20;100.00;101159.13;5094804;28;20055;-42
2023/12/04 02:04:06;;;;;;;21.23;11.48;;;;;;;-1.17;100.00;101160.00;5095477;28;20048;-41
2023/12/04 02:06:35;;;;;;;20.77;10.90;;;;;;;-1.11;100.00;101153.91;5094282;28;20465;-40
2023/12/04 02:09:06;;;;;;;19.55;10.20;;;;;;;-1.10;100.00;101160.03;5094417;28;20048;-41
2023/12/04 02:11:38;;;;;;;18.45;10.45;;;;;;;-1.12;100.00;101169.63;5094255;28;20040;-42
2023/12/04 02:14:07;;;;;;;19.73;10.70;;;;;;;-1.18;100.00;101170.47;5094131;28;20575;-42
2023/12/04 02:16:41;;;;;;;18.60;10.30;;;;;;;-1.13;100.00;101166.16;5094110;28;20086;-42
2023/12/04 02:19:13;;;;;;;19.58;10.15;;;;;;;-1.24;100.00;101166.13;5094265;28;20067;-42
2023/12/04 02:21:42;;;;;;;18.38;10.40;;;;;;;-1.18;100.00;101168.72;5094550;28;20048;-42
2023/12/04 02:24:12;;;;;;;17.90;10.07;;;;;;;-1.14;100.00;101163.53;5094130;28;20069;-43
2023/12/04 02:26:48;;;;;;;19.90;10.38;;;;;;;-1.08;100.00;101174.88;5093871;28;20401;-41
2023/12/04 02:29:23;;;;;;;17.77;9.98;;;;;;;-1.11;100.00;101168.75;5094254;28;20139;-43
2023/12/04 02:31:54;;;;;;;17.65;10.00;;;;;;;-1.16;100.00;101167.03;5093808;28;20052;-42
2023/12/04 02:34:24;;;;;;;20.35;10.27;;;;;;;-1.17;100.00;101167.88;5094347;28;20046;-44
2023/12/04 02:36:54;;;;;;;18.50;10.70;;;;;;;-1.10;100.00;101166.13;5095026;28;20059;-41
2023/12/04 02:39:24;;;;;;;20.08;10.75;;;;;;;-1.05;100.00;101163.53;5095428;28;20066;-43
2023/12/04 02:41:52;;;;;;;20.50;10.48;;;;;;;-1.06;100.00;101172.25;5094517;28;20510;-44
2023/12/04 02:44:21;;;;;;;19.42;10.13;;;;;;;-1.06;100.00;101172.25;5093999;28;20055;-42
2023/12/04 02:46:49;;;;;;;19.73;10.73;;;;;;;-1.20;100.00;101173.09;5093978;28;20135;-42
2023/12/04 02:49:18;;;;;;;21.92;10.43;;;;;;;-1.38;100.00;101165.19;5093973;28;20083;-41
2023/12/04 02:51:46;;;;;;;20.17;10.98;;;;;;;-1.37;100.00;101161.69;5093575;28;20100;-42
2023/12/04 02:54:15;;;;;;;21.17;11.13;;;;;;;-1.31;100.00;101169.59;5093786;28;20127;-43
2023/12/04 02:56:44;;;;;;;23.02;12.10;;;;;;;-1.27;100.00;101170.47;5094372;28;20131;-42
2023/12/04 02:59:12;;;;;;;21.63;11.23;;;;;;;-1.42;100.00;101167.81;5093812;28;20048;-41
2023/12/04 03:01:41;;;;;;;19.42;10.40;;;;;;;-1.42;100.00;101173.03;5094175;28;20044;-42
2023/12/04 03:04:09;;;;;;;21.33;11.80;;;;;;;-1.48;100.00;101173.88;5093874;28;20048;-41
2023/12/04 03:06:38;;;;;;;22.13;12.00;;;;;;;-1.53;100.00;101186.09;5093576;28;20044;-42
2023/12/04 03:09:06;;;;;;;24.02;11.00;;;;;;;-1.50;100.00;101186.09;5093785;28;20420;-41
2023/12/04 03:11:34;;;;;;;23.38;12.43;;;;;;;-1.46;100.00;101185.22;5093469;28;20087;-43
2023/12/04 03:14:04;;;;;;;21.25;11.80;;;;;;;-1.34;100.00;101172.19;5092832;28;20063;-41
2023/12/04 03:16:32;;;;;;;22.42;11.48;;;;;;;-1.41;100.00;101175.66;5092982;28;20428;-42
2023/12/04 03:19:02;;;;;;;21.52;10.63;;;;;;;-1.49;100.00;101186.09;5093177;28;20353;-41
2023/12/04 03:21:30;;;;;;;22.25;11.20;;;;;;;-1.46;100.00;101185.22;5093501;28;20060;-43
2023/12/04 03:23:58;;;;;;;23.73;12.27;;;;;;;-1.34;100.00;101184.41;5093848;28;20060;-43
2023/12/04 03:26:28;;;;;;;21.33;10.52;;;;;;;-1.46;100.00;101186.09;5093204;28;20472;-41
2023/12/04 03:28:56;;;;;;;22.48;11.00;;;;;;;-1.51;100.00;101184.34;5093007;28;20168;-42
2023/12/04 03:31:26;;;;;;;21.52;11.02;;;;;;;-1.58;100.00;101187.81;5092794;28;20052;-41
2023/12/04 03:33:54;;;;;;;23.48;11.63;;;;;;;-1.51;100.00;101195.69;5092771;28;20052;-42
2023/12/04 03:36:22;;;;;;;23.98;13.57;;;;;;;-1.47;100.00;101186.97;5093482;28;20054;-44
2023/12/04 03:38:50;;;;;;;37.50;21.58;;;;;;;-1.52;100.00;101191.31;5093188;28;20051;-41
2023/12/04 03:41:19;;;;;;;26.13;14.98;;;;;;;-1.60;100.00;101189.53;5092799;28;20044;-42
2023/12/04 03:43:47;;;;;;;23.85;12.65;;;;;;;-1.69;100.00;101199.97;5091593;28;20059;-40
2023/12/04 03:46:15;;;;;;;25.38;12.82;;;;;;;-1.71;100.00;101204.31;5092762;28;20040;-42
2023/12/04 03:48:47;;;;;;;26.63;14.90;;;;;;;-1.63;100.00;101200.00;5092667;28;20048;-41
2023/12/04 03:51:16;;;;;;;28.42;15.30;;;;;;;-1.73;100.00;101209.56;5092688;28;20512;-40
2023/12/04 03:53:44;;;;;;;28.17;14.90;;;;;;;-1.65;100.00;101205.19;5092797;28;20405;-44
2023/12/04 03:56:13;;;;;;;27.15;14.63;;;;;;;-1.71;100.00;101207.81;5092740;28;20046;-41
2023/12/04 03:58:41;;;;;;;27.17;14.75;;;;;;;-1.62;100.00;101204.38;5092946;28;20105;-42
2023/12/04 04:01:09;;;;;;;29.77;14.80;;;;;;;-1.63;100.00;101200.88;5093033;28;20048;-42
2023/12/04 04:03:38;;;;;;;25.27;13.50;;;;;;;-1.57;100.00;101202.63;5093488;28;20048;-41
2023/12/04 04:06:10;;;;;;;25.48;13.68;;;;;;;-1.52;100.00;101193.06;5092606;28;20185;-42
2023/12/04 04:08:38;;;;;;;29.27;15.57;;;;;;;-1.74;100.00;101187.75;5091944;28;20070;-43
2023/12/04 04:11:07;;;;;;;27.67;15.43;;;;;;;-1.78;100.00;101185.97;5092495;28;20059;-42
2023/12/04 04:13:38;;;;;;;28.77;15.50;;;;;;;-1.81;100.00;101195.56;5092466;28;20048;-41
2023/12/04 04:16:07;;;;;;;28.00;14.52;;;;;;;-1.86;100.00;101200.75;5092417;28;20131;-41
2023/12/04 04:18:36;;;;;;;30.02;14.82;;;;;;;-2.07;100.00;101187.56;5091694;28;20047;-42
2023/12/04 04:21:05;;;;;;;30.05;15.18;;;;;;;-2.07;100.00;101185.81;5091947;28;20413;-42
2023/12/04 04:23:35;;;;;;;28.30;14.90;;;;;;;-1.95;100.00;101186.75;5091717;28;20113;-43
2023/12/04 04:26:03;;;;;;;26.15;13.60;;;;;;;-1.90;100.00;101187.66;5091637;28;20155;-42
2023/12/04 04:28:32;;;;;;;28.05;14.15;;;;;;;-2.11;100.00;101184.06;5091456;28;20048;-41
2023/12/04 04:31:00;;;;;;;24.40;13.00;;;;;;;-1.94;100.00;101184.13;5091961;28;20044;-42
2023/12/04 04:33:29;;;;;;;23.05;12.38;;;;;;;-1.89;100.00;101181.56;5091386;28;20110;-41
2023/12/04 04:35:57;;;;;;;24.38;12.82;;;;;;;-2.09;100.00;101182.31;5091452;28;20123;-41
2023/12/04 04:38:25;;;;;;;24.75;13.52;;;;;;;-2.16;100.00;101174.41;5092232;28;20044;-41
2023/12/04 04:40:55;;;;;;;23.27;12.57;;;;;;;-2.03;100.00;101184.06;5091806;28;20088;-42
2023/12/04 04:43:24;;;;;;;25.17;13.73;;;;;;;-1.87;100.00;101193.75;5091813;28;20055;-41
2023/12/04 04:45:52;;;;;;;24.20;12.73;;;;;;;-1.83;100.00;101187.72;5091640;28;20139;-42
2023/12/04 04:48:21;;;;;;;23.75;12.63;;;;;;;-1.76;100.00;101192.06;5091618;28;20052;-43
2023/12/04 04:50:49;;;;;;;26.15;13.30;;;;;;;-1.79;100.00;101189.47;5091755;28;20436;-44
2023/12/04 04:53:17;;;;;;;27.58;14.07;;;;;;;-1.88;100.00;101193.75;5091671;28;20048;-43
2023/12/04 04:55:45;;;;;;;23.00;12.18;;;;;;;-1.69;100.00;101189.50;5097399;28;20127;-43
2023/12/04 04:58:18;;;;;;;25.45;13.00;;;;;;;-1.61;100.00;101185.19;5097355;28;20113;-42
2023/12/04 05:00:47;;;;;;;22.65;12.20;;;;;;;-1.71;100.00;101193.84;5097682;28;20044;-42
2023/12/04 05:03:16;;;;;;;24.30;12.35;;;;;;;-1.79;100.00;101192.06;5099127;28;20059;-43
2023/12/04 05:05:44;;;;;;;22.42;12.52;;;;;;;-1.79;100.00;101194.69;5100288;28;20131;-42
2023/12/04 05:08:13;;;;;;;24.60;13.55;;;;;;;-2.02;100.00;101198.94;5100156;28;20044;-43
2023/12/04 05:10:42;;;;;;;26.70;14.00;;;;;;;-2.61;100.00;101197.63;5100704;28;20420;-41
2023/12/04 05:13:10;;;;;;;28.02;13.20;;;;;;;-2.16;100.00;101203.19;5102000;28;20048;-43
2023/12/04 05:15:39;;;;;;;26.48;14.35;;;;;;;-2.01;100.00;101205.91;5102478;28;20044;-42
2023/12/04 05:18:08;;;;;;;28.67;14.45;;;;;;;-2.23;100.00;101204.00;5102244;28;20528;-45
2023/12/04 05:20:36;;;;;;;26.65;13.85;;;;;;;-2.28;100.00;101198.75;5101839;28;20040;-42
2023/12/04 05:23:05;;;;;;;30.30;13.93;;;;;;;-2.19;100.00;101204.03;5101229;28;20051;-44
2023/12/04 05:25:33;;;;;;;25.75;13.88;;;;;;;-2.09;100.00;101215.44;5099251;28;20134;-43
2023/12/04 05:28:12;;;;;;;28.58;14.68;;;;;;;-2.13;100.00;101211.03;5101801;28;20040;-43
2023/12/04 05:30:42;;;;;;;26.52;13.20;;;;;;;-1.97;100.00;101205.03;5102769;28;20412;-45
2023/12/04 05:33:10;;;;;;;27.17;13.32;;;;;;;-2.05;100.00;101209.34;5104516;28;20055;-43
2023/12/04 05:35:39;;;;;;;24.63;12.82;;;;;;;-1.99;100.00;101211.13;5102473;28;20490;-41
2023/12/04 05:38:08;;;;;;;23.67;12.93;;;;;;;-1.98;100.00;101203.28;5098095;28;20059;-44
2023/12/04 05:40:36;;;;;;;26.40;13.23;;;;;;;-1.99;100.00;101203.28;5097591;28;20071;-43
2023/12/04 05:43:05;;;;;;;23.40;12.32;;;;;;;-2.00;100.00;101201.53;5096085;28;20044;-44
2023/12/04 05:45:33;;;;;;;26.60;13.63;;;;;;;-2.17;100.00;101206.66;5096933;28;20055;-47
2023/12/04 05:48:03;;;;;;;26.65;13.43;;;;;;;-2.64;100.00;101207.16;5096654;28;20051;-42
2023/12/04 05:50:32;;;;;;;29.25;14.68;;;;;;;-2.48;100.00;101206.44;5097094;28;20048;-44
2023/12/04 05:53:00;;;;;;;28.90;14.80;;;;;;;-2.35;100.00;101207.38;5097442;28;20055;-43
2023/12/04 05:55:30;;;;;;;26.50;14.35;;;;;;;-2.18;100.00;101210.13;5096562;28;20412;-41
2023/12/04 05:57:58;;;;;;;23.83;13.45;;;;;;;-2.15;100.00;101210.16;5096470;28;20055;-42
2023/12/04 06:00:30;;;;;;;29.02;14.00;;;;;;;-2.05;100.00;101212.81;5096492;28;20155;-45
2023/12/04 06:02:58;;;;;;;28.73;14.00;;;;;;;-2.03;100.00;101215.44;5096207;28;20043;-42
2023/12/04 06:05:29;;;;;;;30.65;14.50;;;;;;;-2.09;100.00;101218.03;5095266;28;20417;-44
2023/12/04 06:07:57;;;;;;;27.45;14.88;;;;;;;-2.31;100.00;101212.66;5096199;28;20390;-41
2023/12/04 06:10:26;;;;;;;28.98;14.68;;;;;;;-2.22;100.00;101218.81;5095644;28;20502;-43
2023/12/04 06:12:54;;;;;;;30.95;15.88;;;;;;;-2.23;100.00;101224.91;5096563;28;20128;-44
2023/12/04 06:15:23;;;;;;;28.08;15.23;;;;;;;-2.02;100.00;101215.50;5094306;28;20048;-42
2023/12/04 06:17:52;;;;;;;27.05;14.15;;;;;;;-1.97;100.00;101219.84;5095857;28;21213;-43
2023/12/04 06:20:20;;;;;;;29.13;15.80;;;;;;;-2.31;100.00;101227.47;5095794;28;20401;-42
2023/12/04 06:22:51;;;;;;;31.55;15.95;;;;;;;-2.54;100.00;101224.66;5094918;28;20036;-42
2023/12/04 06:25:20;;;;;;;33.63;16.10;;;;;;;-2.74;100.00;101228.81;5095350;28;20467;-42
2023/12/04 06:27:49;;;;;;;29.88;16.20;;;;;;;-2.92;100.00;101217.34;5095111;28;20097;-42
2023/12/04 06:30:18;;;;;;;32.80;15.40;;;;;;;-3.01;100.00;101217.25;5094782;28;20051;-42
2023/12/04 06:32:47;;;;;;;30.17;15.25;;;;;;;-2.99;100.00;101218.16;5095392;28;20044;-43
2023/12/04 06:35:16;;;;;;;29.77;14.90;;;;;;;-2.68;100.00;101223.69;5094717;28;20489;-41
2023/12/04 06:37:53;;;;;;;34.30;15.73;;;;;;;-2.56;100.00;101229.00;5095418;28;20052;-43
2023/12/04 06:40:22;;;;;;;27.45;14.40;;;;;;;-2.41;100.00;101233.50;5095441;28;20055;-42
2023/12/04 06:42:51;;;;;;;29.80;14.98;;;;;;;-2.37;100.00;101238.75;5095279;28;20101;-43
2023/12/04 06:45:21;;;;;;;30.60;15.63;;;;;;;-2.33;100.00;101237.88;5094528;28;20417;-43
2023/12/04 06:47:51;;;;;;;29.33;15.65;;;;;;;-2.23;100.00;101238.84;5094952;28;20044;-42
2023/12/04 06:50:23;;;;;;;32.30;14.82;;;;;;;-1.96;100.00;101247.75;5096084;28;20068;-46
2023/12/04 06:52:53;;;;;;;30.63;15.27;;;;;;;-1.91;100.00;101246.94;5093805;28;20122;-41
2023/12/04 06:55:22;;;;;;;30.48;15.23;;;;;;;-1.80;100.00;101239.16;5094358;28;20055;-40
2023/12/04 06:57:50;;;;;;;31.95;15.27;;;;;;;-1.77;100.00;101241.78;5094965;28;20405;-41
2023/12/04 07:00:19;;;;;;;31.55;15.15;;;;;;;-1.83;100.00;101234.78;5094157;28;20044;-41
2023/12/04 07:02:51;;;;;;;26.48;14.98;;;;;;;-1.64;100.00;101241.00;5093827;28;20048;-41
2023/12/04 07:05:21;;;;;;;29.65;15.52;;;;;;;-1.63;100.00;101239.25;5093877;28;20093;-40
2023/12/04 07:07:50;;;;;;;31.58;14.40;;;;;;;-1.47;100.00;101243.66;5094029;28;20489;-42
2023/12/04 07:10:19;;;;;;;30.02;15.20;;;;;;;-1.38;100.00;101248.94;5094189;28;20055;-41
2023/12/04 07:12:48;;;;;;;28.42;14.30;;;;;;;-1.32;100.00;101248.13;5093750;28;20462;-41
2023/12/04 07:15:17;;;;;;;32.22;15.57;;;;;;;-1.22;100.00;101250.78;5092927;28;20062;-43
2023/12/04 07:17:45;;;;;;;31.63;15.88;;;;;;;-1.20;100.00;101243.78;5093175;28;20389;-41
2023/12/04 07:20:13;;;;;;;28.13;15.18;;;;;;;-1.12;100.00;101245.56;5093339;28;20500;-50
2023/12/04 07:22:42;;;;;;;30.30;15.45;;;;;;;-1.09;100.00;101248.19;5094111;28;20125;-41
2023/12/04 07:25:10;;;;;;;31.02;16.98;;;;;;;-1.40;100.00;101257.66;5093601;28;20052;-41
2023/12/04 07:27:40;;;;;;;29.35;15.60;;;;;;;-1.79;100.00;101247.00;5093926;28;20075;-43
2023/12/04 07:30:09;;;;;;;31.63;17.10;;;;;;;-1.59;100.00;101249.72;5093919;28;20090;-42
2023/12/04 07:32:37;;;;;;;31.50;17.08;;;;;;;-1.52;100.00;101251.50;5094178;28;20412;-43
2023/12/04 07:35:07;;;;;;;35.55;17.08;;;;;;;-1.50;100.00;101251.50;5093923;28;20127;-44
2023/12/04 07:37:36;;;;;;;32.80;17.25;;;;;;;-1.63;100.00;101255.81;5084597;28;20167;-40
2023/12/04 07:40:07;;;;;;;34.85;17.25;;;;;;;-1.30;100.00;101255.09;5084312;28;20044;-41
2023/12/04 07:42:36;;;;;;;37.50;18.55;;;;;;;-1.39;100.00;101256.78;5092658;28;20070;-41
2023/12/04 07:45:07;;;;;;;34.88;18.17;;;;;;;-1.58;100.00;101261.94;5092722;28;20155;-43
2023/12/04 07:47:35;;;;;;;33.50;18.80;;;;;;;-1.51;100.00;101255.00;5092679;28;20040;-41
2023/12/04 07:50:04;;;;;;;40.50;19.90;;;;;;;-1.31;100.00;101261.19;5092451;28;20040;-42
2023/12/04 07:52:33;;;;;;;37.63;20.27;;;;;;;-0.96;100.00;101256.09;5092884;28;20055;-40
2023/12/04 07:55:01;;;;;;;40.75;20.88;;;;;;;-0.73;100.00;101250.03;5092916;28;20055;-41
2023/12/04 07:57:30;;;;;;;39.92;19.88;;;;;;;-0.56;100.00;101257.94;5092386;28;20040;-41
2023/12/04 07:59:59;;;;;;;36.35;19.50;;;;;;;-0.45;100.00;101249.19;5092496;28;20051;-41
2023/12/04 08:02:29;;;;;;;36.38;19.95;;;;;;;-0.38;100.00;101255.31;5092277;28;20044;-41
2023/12/04 08:04:58;;;;;;;40.03;20.65;;;;;;;-0.26;100.00;101262.31;5092010;28;20487;-42
2023/12/04 08:07:26;;;;;;;40.60;21.98;;;;;;;-0.57;100.00;101258.81;5091849;28;20054;-42
2023/12/04 08:09:55;;;;;;;43.33;22.02;;;;;;;-1.02;100.00;101257.81;5092379;28;20075;-42
2023/12/04 08:12:24;;;;;;;41.90;22.00;;;;;;;-1.13;100.00;101259.53;5092287;28;20051;-42
2023/12/04 08:14:52;;;;;;;42.40;21.17;;;;;;;-0.89;100.00;101260.47;5090750;28;20127;-42
2023/12/04 08:17:20;;;;;;;42.85;21.35;;;;;;;-0.82;100.00;101256.13;5092317;28;20131;-40
2023/12/04 08:19:50;;;;;;;41.88;21.23;;;;;;;-0.43;100.00;101259.69;5091997;28;20384;-42
2023/12/04 08:22:20;;;;;;;46.40;22.00;;;;;;;-0.65;100.00;101254.41;5092283;28;20052;-42
2023/12/04 08:24:49;;;;;;;45.38;22.75;;;;;;;-0.76;100.00;101265.75;5092033;28;20415;-41
2023/12/04 08:27:17;;;;;;;41.67;21.00;;;;;;;-0.42;100.00;101262.28;5092411;28;20040;-41
2023/12/04 08:29:46;;;;;;;43.20;21.83;;;;;;;-0.22;100.00;101259.66;5091694;28;20135;-41
2023/12/04 08:32:14;;;;;;;44.55;22.10;;;;;;;-0.17;100.00;101262.31;5092664;28;20055;-41
2023/12/04 08:34:42;;;;;;;41.92;21.60;;;;;;;-0.23;100.00;101259.69;5091941;28;20048;-41
2023/12/04 08:37:12;;;;;;;40.72;21.50;;;;;;;-0.10;100.00;101264.91;5092212;28;20424;-42
2023/12/04 08:39:41;;;;;;;41.60;21.33;;;;;;;-0.18;100.00;101265.81;5092302;28;20082;-42
2023/12/04 08:42:09;;;;;;;42.88;22.08;;;;;;;-0.05;100.00;101260.53;5091925;28;20125;-41
2023/12/04 08:44:48;;;;;;;42.60;22.02;;;;;;;-0.03;100.00;101265.78;5091368;28;20048;-41
2023/12/04 08:47:17;;;;;;;42.80;21.27;;;;;;;-0.38;100.00;101264.06;5091199;28;20503;-41
2023/12/04 08:49:45;;;;;;;37.80;19.42;;;;;;;-0.13;100.00;101262.28;5090237;28;20400;-42
2023/12/04 08:52:18;;;;;;;42.17;20.15;;;;;;;0.16;100.00;101251.78;5091292;28;20055;-43
2023/12/04 08:54:47;;;;;;;38.95;20.42;;;;;;;0.25;100.00;101256.13;5091444;28;20089;-40
2023/12/04 08:57:16;;;;;;;35.65;19.38;;;;;;;0.39;100.00;101254.38;5092017;28;20155;-41
2023/12/04 08:59:44;;;;;;;42.67;19.10;;;;;;;0.55;100.00;101252.53;5091486;28;20072;-42
2023/12/04 09:02:12;;;;;;;37.80;19.45;;;;;;;0.29;100.00;101252.63;5091773;28;20162;-42
2023/12/04 09:04:43;;;;;;;38.45;18.77;;;;;;;0.44;100.00;101255.22;5091750;28;20055;-41
2023/12/04 09:07:11;;;;;;;34.00;18.35;;;;;;;0.48;100.00;101254.34;5091665;28;20048;-41
2023/12/04 09:10:02;;;;;;;36.88;19.25;;;;;;;0.32;100.00;101252.63;5091594;28;20055;-41
2023/12/04 09:12:38;;;;;;;38.78;19.10;;;;;;;-0.01;100.00;101259.66;5090411;28;20043;-43
2023/12/04 09:15:07;;;;;;;34.00;18.52;;;;;;;0.15;100.00;101264.91;5091292;28;20075;-42
2023/12/04 09:17:37;;;;;;;33.25;19.55;;;;;;;0.19;100.00;101261.38;5091055;28;20052;-43
2023/12/04 09:20:07;;;;;;;38.70;19.92;;;;;;;0.32;100.00;101263.13;5091006;28;20415;-42
2023/12/04 09:22:38;;;;;;;36.03;18.60;;;;;;;0.35;100.00;101268.34;5091072;28;20324;-42
2023/12/04 09:25:21;;;;;;;33.35;17.92;;;;;;;0.43;100.00;101266.59;5090940;28;20558;-43
2023/12/04 09:27:50;;;;;;;36.35;18.08;;;;;;;0.77;100.00;101258.59;5091461;28;20132;-42
2023/12/04 09:30:18;;;;;;;34.67;17.20;;;;;;;0.69;100.00;101250.75;5091950;28;20467;-42
2023/12/04 09:32:47;;;;;;;31.23;15.60;;;;;;;0.72;100.00;101252.50;5091165;28;20117;-41
2023/12/04 09:35:16;;;;;;;31.05;15.55;;;;;;;0.81;100.00;101247.22;5091457;28;20319;-42
2023/12/04 09:37:45;;;;;;;33.45;16.67;;;;;;;0.98;100.00;101245.38;5091383;28;20629;-44
2023/12/04 09:40:13;;;;;;;28.98;15.43;;;;;;;0.84;100.00;101239.31;5092775;28;20048;-42
2023/12/04 09:42:43;;;;;;;30.27;15.80;;;;;;;1.13;100.00;101234.75;5095106;28;20103;-43
2023/12/04 09:45:13;;;;;;;29.25;16.10;;;;;;;0.95;100.00;101234.00;5094973;28;20055;-43
2023/12/04 09:47:42;;;;;;;25.98;14.18;;;;;;;1.12;100.00;101232.16;5094637;28;20500;-42
2023/12/04 09:50:11;;;;;;;28.58;15.05;;;;;;;0.83;100.00;101227.06;5094684;28;20097;-42
2023/12/04 09:52:40;;;;;;;26.65;14.93;;;;;;;0.99;100.00;101226.09;5094541;28;20116;-41
2023/12/04 09:55:09;;;;;;;30.52;16.15;;;;;;;0.85;100.00;101214.78;5094662;28;20469;-42
2023/12/04 09:57:38;;;;;;;28.55;15.02;;;;;;;0.69;100.00;101215.75;5094503;28;20083;-41
2023/12/04 10:00:11;;;;;;;27.10;14.27;;;;;;;1.08;100.00;101214.66;5094742;28;20087;-44
2023/12/04 10:02:41;;;;;;;26.38;14.70;;;;;;;1.24;100.00;101212.78;5094960;28;20407;-44
2023/12/04 10:05:10;;;;;;;26.42;13.35;;;;;;;1.27;100.00;101215.44;5095535;28;20393;-41
2023/12/04 10:07:38;;;;;;;23.70;12.75;;;;;;;1.35;100.00;101203.06;5095921;28;20044;-42
2023/12/04 10:10:11;;;;;;;23.88;12.32;;;;;;;1.31;100.00;101196.09;5095453;28;20123;-42
2023/12/04 10:12:39;;;;;;;24.77;12.75;;;;;;;1.33;100.00;101189.06;5095125;28;20044;-43
2023/12/04 10:15:11;;;;;;;25.48;11.88;;;;;;;0.95;100.00;101197.22;5094254;28;20403;-43
2023/12/04 10:17:41;;;;;;;24.88;12.90;;;;;;;0.83;100.00;101185.03;5094835;28;20050;-43
2023/12/04 10:20:17;;;;;;;24.73;12.77;;;;;;;1.11;100.00;101181.34;5094671;28;20058;-43
2023/12/04 10:22:54;;;;;;;22.35;11.60;;;;;;;0.88;100.00;101179.75;5094295;28;20082;-42
2023/12/04 10:25:25;;;;;;;23.48;11.32;;;;;;;1.23;100.00;101176.88;5093994;28;20059;-42
2023/12/04 10:27:55;;;;;;;22.70;11.52;;;;;;;1.27;100.00;101178.63;5094997;28;20433;-43
2023/12/04 10:30:28;;;;;;;25.77;10.82;;;;;;;1.57;100.00;101175.75;5094511;28;20045;-42
2023/12/04 10:33:00;;;;;;;20.30;10.95;;;;;;;1.56;100.00;101171.38;5094747;28;20051;-41
2023/12/04 10:35:30;;;;;;;23.00;10.88;;;;;;;1.36;100.00;101162.78;5094415;28;20047;-43
2023/12/04 10:38:00;;;;;;;20.77;11.05;;;;;;;1.46;100.00;101156.56;5094708;28;20567;-43
2023/12/04 10:40:31;;;;;;;20.98;11.63;;;;;;;1.54;100.00;101151.22;5095118;28;20048;-41
2023/12/04 10:43:17;;;;;;;21.55;11.48;;;;;;;1.80;100.00;101154.47;5094334;28;20059;-42
2023/12/04 10:45:48;;;;;;;23.98;11.95;;;;;;;1.78;100.00;101147.50;5093806;28;20173;-43
2023/12/04 10:48:17;;;;;;;20.33;11.30;;;;;;;1.84;100.00;101145.69;5093699;28;20044;-43
2023/12/04 10:50:48;;;;;;;25.73;11.77;;;;;;;1.85;100.00;101146.56;5093683;28;20072;-44
2023/12/04 10:53:17;;;;;;;21.42;11.27;;;;;;;1.83;100.00;101145.69;5093046;28;20044;-42
2023/12/04 10:55:46;;;;;;;22.63;12.77;;;;;;;1.76;100.00;101137.00;5093665;28;20077;-41
2023/12/04 10:58:16;;;;;;;24.00;11.63;;;;;;;1.52;100.00;101132.81;5093280;28;20131;-41
2023/12/04 11:00:48;;;;;;;23.27;10.85;;;;;;;1.64;100.00;101127.47;5092938;28;20090;-43
2023/12/04 11:03:22;;;;;;;21.48;11.48;;;;;;;1.55;100.00;101138.09;5093768;28;20052;-42
2023/12/04 11:06:00;;;;;;;21.75;11.18;;;;;;;1.36;100.00;101120.72;5093311;28;20585;-42
2023/12/04 11:08:30;;;;;;;16.88;9.95;;;;;;;1.60;100.00;101124.88;5093862;28;20074;-42
2023/12/04 11:11:03;;;;;;;18.90;9.40;;;;;;;1.60;100.00;101128.38;5093539;28;20412;-42
2023/12/04 11:13:35;;;;;;;16.27;9.05;;;;;;;1.73;100.00;101121.22;5093365;28;20101;-43